Friars Hill, West Virginia
Current Conditions -  °F | °C
As of 10:35 PM on Saturday 25 Oct 2014 (Local Time) from KLWB Reporting Station
Clear Clear  
Wind Chill: 57°   Ceiling: Unl
Heat Index: 57°   Visibility: 10mi
Dew Point: 47°   Wind: 9mph
Humidity: 69%   Direction: 240°WSW
Pressure: 29.9"   Gusts: NA
Location:  38.0307°N, 80.4756°W
Report Text: KLWB 260235Z AUTO 24008KT 10SM CLR 14/09 A2990 RMK AO2 T01400085
Loading
Personal Weather Stations






























Interactive Weather Map
Tropical Storm Tracking
New forecast layout! Learn more

10-Day Weather Forecast

Advertisements
Track Severe Weather on mobile